• Join FlightAware (Why Join?)
  • Login
  • US Flag 
Rudolph Flight #1: Arrived! 
04:54AM EST


 

Airport Tracker/Info


-or-


 

Live Flight TrackerFlight Track Log ✈ CSN3259 ✈ 21-May-2013 ✈ ZGKL / KWL - ZGGG / CAN

Flight Track Log - Related Links

Times and Time Zones

All times are in EDT time to prevent confusion due to time zone crossing. See the CSN3259 flight status page for this flight to view local times or setup timezone preferences in your user account.

Time Position Orientation Groundspeed Altitude Reporting Facility
EDT Latitude Longitude Course Direction KTS MPH feet Rate Location/Type
12:30PM 24.2290 111.1720 134° Southeast 357 411 24,600  Level FlightAware
12:31PM 24.1830 111.2250 134° Southeast 357 411 24,600  Level FlightAware
12:32PM 24.1290 111.2870 134° Southeast 368 423 24,600  Level FlightAware
12:32PM 24.0840 111.3390 133° Southeast 398 458 24,600  Level FlightAware
12:33PM 24.0330 111.3990 133° Southeast 400 460 24,600  Level FlightAware
12:34PM 23.9660 111.4740 134° Southeast 444 511 24,600  Level FlightAware
12:35PM 23.9080 111.5420 133° Southeast 444 511 24,600  Level FlightAware
12:35PM 23.8580 111.5980 134° Southeast 439 505 24,600  Level FlightAware
12:36PM 23.7820 111.6840 134° Southeast 435 501 24,600  Level FlightAware
12:37PM 23.7260 111.7480 134° Southeast 439 505 24,600  Level FlightAware
12:37PM 23.6710 111.8100 134° Southeast 441 507 24,600 -540 Level FlightAware
12:38PM 23.6060 111.8840 134° Southeast 439 505 23,900 -1,380 Descending FlightAware
12:39PM 23.5490 111.9480 134° Southeast 434 499 22,700 -1,800 Descending FlightAware
12:39PM 23.4890 112.0160 134° Southeast 428 493 21,400 -1,800 Descending FlightAware
12:40PM 23.4340 112.0780 134° Southeast 422 486 20,200 -1,800 Descending FlightAware
12:41PM 23.3720 112.1480 134° Southeast 411 473 18,900 -1,740 Descending FlightAware
12:42PM 23.3200 112.2070 134° Southeast 401 461 17,800 -1,620 Descending FlightAware
12:42PM 23.2690 112.2640 134° Southeast 393 452 16,800 -1,560 Descending FlightAware
12:43PM 23.2140 112.3260 134° Southeast 387 445 15,600 -1,440 Descending FlightAware
12:44PM 23.1640 112.3820 134° Southeast 383 441 14,800 -1,140 Descending FlightAware
12:44PM 23.1070 112.4460 134° Southeast 379 436 14,000 -780 Descending FlightAware
12:45PM 23.0690 112.5040 125° Southeast 384 442 13,700 -960 Descending FlightAware
12:46PM 23.0700 112.5660 89° East 390 449 12,900 -1,020 Descending FlightAware
12:46PM 23.0690 112.6330 91° East 381 438 12,600 -600 Descending FlightAware
12:47PM 23.0690 112.7170 90° East 341 392 12,100 -540 Descending FlightAware
12:48PM 23.0690 112.7900 90° East 309 356 11,800 -360 Descending FlightAware
12:48PM 23.0680 112.8490 91° East 308 354 11,600 -900 Descending FlightAware
12:49PM 23.0680 112.9150 90° East 307 353 10,600 -960 Descending FlightAware
12:50PM 23.0670 113.0010 91° East 271 312 10,000 -600 Descending FlightAware
12:50PM 23.0670 113.0320 90° East 249 287 9,800 -660 Descending FlightAware
12:51PM 23.0670 113.0820 90° East 222 255 9,300 -600 Descending FlightAware
12:52PM 23.0780 113.1120 68° East 217 250 9,100 -300 Descending FlightAware
12:52PM 23.0890 113.1190 30° Northeast 206 237 9,100  Level FlightAware
12:52PM 23.1190 113.1260 12° North 202 232 9,100  Level FlightAware
12:53PM 23.1410 113.1310 12° North 205 236 9,100  Level FlightAware
12:53PM 23.1700 113.1370 11° North 205 236 9,100  Level FlightAware
12:54PM 23.1920 113.1420 12° North 206 237 9,100  Level FlightAware
12:54PM 23.2210 113.1480 11° North 208 239 9,100  Level FlightAware
12:55PM 23.2460 113.1530 10° North 210 242 9,100  Level FlightAware
12:55PM 23.2590 113.1560 12° North 209 241 9,100  Level FlightAware
12:55PM 23.2780 113.1600 11° North 208 239 9,100  Level FlightAware
12:56PM 23.2970 113.1510 336° Northwest 179 206 9,100  Level FlightAware
12:56PM 23.3100 113.1330 308° West 174 200 9,100  Level FlightAware
12:56PM 23.3180 113.1220 308° West 175 201 9,100  Level FlightAware
12:57PM 23.3320 113.1010 306° West 174 200 9,100  Level FlightAware
12:57PM 23.3450 113.0840 310° West 173 199 9,100  Level FlightAware
12:58PM 23.3590 113.0630 306° West 174 200 9,100  Level FlightAware
12:58PM 23.3670 113.0520 308° West 173 199 9,100  Level FlightAware
12:58PM 23.3790 113.0350 308° West 174 200 9,100  Level FlightAware
12:59PM 23.3940 113.0150 309° West 173 199 9,100  Level FlightAware
12:59PM 23.4080 112.9990 314° West 190 219 9,100  Level FlightAware
01:00PM 23.4340 113.0100 21° North 218 251 9,100  Level FlightAware
01:00PM 23.4380 113.0250 74° East 217 250 9,100  Level FlightAware
01:00PM 23.4410 113.0570 84° East 217 250 9,100  Level FlightAware
01:01PM 23.4440 113.0860 84° East 215 247 9,100 -480 Level FlightAware
01:01PM 23.4470 113.1180 84° East 213 245 8,700 -900 Descending FlightAware
01:02PM 23.4500 113.1430 83° East 212 244 8,300 -900 Descending FlightAware
01:02PM 23.4520 113.1610 83° East 213 245 8,100 -300 Descending FlightAware
01:02PM 23.4550 113.1860 83° East 213 245 8,100  Level FlightAware
01:03PM 23.4570 113.2030 83° East 214 246 8,100  Level FlightAware
01:03PM 23.4610 113.2180 74° East 220 253 8,100  Level FlightAware
01:03PM 23.4720 113.2290 43° Northeast 215 247 8,100  Level FlightAware
01:03PM 23.4840 113.2340 21° North 210 242 8,100 -180 Level FlightAware
01:04PM 23.5090 113.2410 14° North 203 234 8,000 -780 Descending FlightAware
01:04PM 23.5370 113.2490 15° North 203 234 7,400 -1,140 Descending FlightAware
01:05PM 23.5580 113.2550 15° North 202 232 7,000 -1,140 Descending FlightAware
01:05PM 23.5910 113.2640 14° North 202 232 6,300 -1,080 Descending FlightAware
01:06PM 23.6050 113.2670 11° North 199 229 6,100 -300 Descending FlightAware
01:06PM 23.6270 113.2730 14° North 204 235 6,100  Level FlightAware
01:06PM 23.6490 113.2800 16° North 204 235 6,100  Level FlightAware
01:07PM 23.6690 113.2850 13° North 202 232 6,100  Level FlightAware
01:07PM 23.6920 113.2920 16° North 206 237 6,100  Level FlightAware
01:08PM 23.7170 113.3000 16° North 212 244 6,100  Level FlightAware
01:08PM 23.7270 113.3140 52° Northeast 206 237 6,100 -480 Level FlightAware
01:08PM 23.7280 113.3220 82° East 200 230 5,900 -1,200 Descending FlightAware
01:09PM 23.7230 113.3500 101° East 187 215 5,300 -1,200 Descending FlightAware
01:09PM 23.7120 113.3590 143° Southeast 167 192 5,000 -1,080 Descending FlightAware
01:09PM 23.6950 113.3660 159° South 164 189 4,600 -1,080 Descending FlightAware
01:09PM 23.6880 113.3680 165° South 158 182 4,400 -720 Descending FlightAware
01:10PM 23.6620 113.3600 196° South 154 177 4,100 -300 Descending FlightAware
01:10PM 23.6460 113.3560 193° South 154 177 4,100  Level FlightAware
01:11PM 23.6340 113.3530 193° South 154 177 4,100  Level FlightAware
01:11PM 23.6140 113.3480 193° South 152 175 4,100 -180 Level FlightAware
01:11PM 23.6040 113.3450 195° South 152 175 4,000 -600 Descending FlightAware
01:12PM 23.5860 113.3400 194° South 151 174 3,700 -780 Descending FlightAware
01:12PM 23.5660 113.3350 193° South 152 175 3,300 -780 Descending FlightAware
01:13PM 23.5490 113.3300 195° South 153 176 3,000 -780 Descending FlightAware
01:13PM 23.5380 113.3270 194° South 154 177 2,800 -780 Descending FlightAware
01:13PM 23.5230 113.3230 194° South 154 177 2,500 -360 Descending FlightAware
01:14PM 23.5060 113.3190 192° South 154 177 2,500  Level FlightAware